createdAt,value
2019-05-06T00:00:58.937Z,66.50
2019-05-06T00:03:24.712Z,66.60
2019-05-06T00:05:51.775Z,66.50
2019-05-06T00:08:24.588Z,66.60
2019-05-06T00:10:56.166Z,66.60
2019-05-06T00:13:25.147Z,66.60
2019-05-06T00:15:54.417Z,66.60
2019-05-06T00:18:27.125Z,66.60
2019-05-06T00:20:57.663Z,66.50
2019-05-06T00:23:30.203Z,66.60
2019-05-06T00:26:35.003Z,66.60
2019-05-06T00:29:06.568Z,66.60
2019-05-06T00:34:24.592Z,66.70
2019-05-06T00:36:54.333Z,66.50
2019-05-06T00:42:31.427Z,66.70
2019-05-06T00:44:59.083Z,66.70
2019-05-06T00:47:26.836Z,66.60
2019-05-06T00:50:11.007Z,66.80
2019-05-06T00:52:44.589Z,66.70
2019-05-06T00:55:17.754Z,66.70
2019-05-06T00:57:46.769Z,66.80
2019-05-06T01:00:14.958Z,66.80
2019-05-06T01:02:43.917Z,66.70
2019-05-06T01:05:13.901Z,66.80
2019-05-06T01:07:40.869Z,66.70
2019-05-06T01:10:07.791Z,66.70
2019-05-06T01:12:35.923Z,66.80
2019-05-06T01:15:03.848Z,66.70
2019-05-06T01:17:30.695Z,66.80
2019-05-06T01:19:58.217Z,66.80
2019-05-06T01:22:25.525Z,66.90
2019-05-06T01:24:55.869Z,66.90
2019-05-06T01:27:24.071Z,66.90
2019-05-06T01:29:51.241Z,66.90
2019-05-06T01:32:19.400Z,66.80
2019-05-06T01:35:01.634Z,66.90
2019-05-06T01:37:29.737Z,66.90
2019-05-06T01:40:17.596Z,66.80
2019-05-06T01:42:57.560Z,66.90
2019-05-06T01:45:25.730Z,66.80
2019-05-06T01:47:54.385Z,66.90
2019-05-06T01:50:23.554Z,66.90
2019-05-06T01:52:56.506Z,66.90
2019-05-06T01:55:24.590Z,66.90
2019-05-06T01:57:54.410Z,66.90
2019-05-06T02:00:23.217Z,66.90
2019-05-06T02:02:51.546Z,66.90
2019-05-06T02:05:19.781Z,67.00
2019-05-06T02:07:47.755Z,66.90
2019-05-06T02:10:16.088Z,67.00
2019-05-06T02:12:44.438Z,66.90
2019-05-06T02:15:12.107Z,66.90
2019-05-06T02:17:40.981Z,66.90
2019-05-06T02:20:09.522Z,67.00
2019-05-06T02:22:46.158Z,66.90
2019-05-06T02:25:25.860Z,67.00
2019-05-06T02:28:03.990Z,66.90
2019-05-06T02:30:45.377Z,67.00
2019-05-06T02:33:20.751Z,67.00
2019-05-06T02:36:14.880Z,67.00
2019-05-06T02:38:47.943Z,67.10
2019-05-06T02:41:33.617Z,67.00
2019-05-06T02:44:03.328Z,67.00
2019-05-06T02:46:33.813Z,67.00
2019-05-06T02:49:23.951Z,67.00
2019-05-06T02:51:53.887Z,67.10
2019-05-06T02:54:23.396Z,67.10
2019-05-06T02:56:53.115Z,67.10
2019-05-06T02:59:24.099Z,67.10
2019-05-06T03:01:53.558Z,67.10
2019-05-06T03:04:19.943Z,67.10
2019-05-06T03:06:47.277Z,67.10
2019-05-06T03:09:15.673Z,67.00
2019-05-06T03:11:43.836Z,67.10
2019-05-06T03:14:24.722Z,67.10
2019-05-06T03:16:56.771Z,67.20
2019-05-06T03:19:25.400Z,67.20
2019-05-06T03:22:13.349Z,67.10
2019-05-06T03:24:45.932Z,67.10
2019-05-06T03:27:17.380Z,67.20
2019-05-06T03:30:04.095Z,67.20
2019-05-06T03:32:41.333Z,67.10
2019-05-06T03:35:25.085Z,67.10
2019-05-06T03:37:45.989Z,67.10
2019-05-06T03:40:15.386Z,67.20
2019-05-06T03:42:58.664Z,67.20
2019-05-06T03:45:39.073Z,67.20
2019-05-06T03:48:15.886Z,67.20
2019-05-06T03:50:59.683Z,67.20
2019-05-06T03:53:38.630Z,67.20
2019-05-06T03:56:16.852Z,67.20
2019-05-06T03:58:43.763Z,67.20
2019-05-06T04:01:14.914Z,67.10
2019-05-06T04:03:48.580Z,67.20
2019-05-06T04:06:15.528Z,67.20
2019-05-06T04:08:43.862Z,67.20
2019-05-06T04:11:13.809Z,67.20
2019-05-06T04:13:43.688Z,67.30
2019-05-06T04:16:23.151Z,67.20
2019-05-06T04:19:04.935Z,67.30
2019-05-06T04:21:56.517Z,67.20
2019-05-06T04:24:42.933Z,67.20
2019-05-06T04:27:13.437Z,67.20
2019-05-06T04:29:42.825Z,67.30
2019-05-06T04:32:13.209Z,67.20
2019-05-06T04:34:42.879Z,67.20
2019-05-06T04:37:09.924Z,67.30
2019-05-06T04:39:37.985Z,67.20
2019-05-06T04:42:09.638Z,67.30
2019-05-06T04:44:38.502Z,67.20
2019-05-06T04:47:06.579Z,67.30
2019-05-06T04:49:34.089Z,67.30
2019-05-06T04:52:03.642Z,67.30
2019-05-06T04:54:33.091Z,67.30
2019-05-06T04:56:59.976Z,67.30
2019-05-06T04:59:32.431Z,67.30
2019-05-06T05:02:02.709Z,67.30
2019-05-06T05:04:35.799Z,67.30
2019-05-06T05:07:22.480Z,67.30
2019-05-06T05:10:08.693Z,67.40
2019-05-06T05:13:07.812Z,67.40
2019-05-06T05:16:15.569Z,67.30
2019-05-06T05:18:53.082Z,67.30
2019-05-06T05:21:22.913Z,67.40
2019-05-06T05:23:52.349Z,67.20
2019-05-06T05:26:19.525Z,67.30
2019-05-06T05:28:50.542Z,67.30
2019-05-06T05:31:33.161Z,67.40
2019-05-06T05:34:15.536Z,67.40
2019-05-06T05:36:47.129Z,67.30
2019-05-06T05:39:14.451Z,67.50
2019-05-06T05:41:42.927Z,67.30
2019-05-06T05:44:32.266Z,67.30
2019-05-06T05:47:18.841Z,67.40
2019-05-06T05:50:13.282Z,67.30
2019-05-06T05:53:05.272Z,67.50
2019-05-06T05:55:34.613Z,67.40
2019-05-06T05:58:13.013Z,67.50
2019-05-06T06:00:39.890Z,67.40
2019-05-06T06:03:07.453Z,67.50
2019-05-06T06:05:45.282Z,67.50
2019-05-06T06:08:24.908Z,67.50
2019-05-06T06:11:09.453Z,67.50
2019-05-06T06:13:45.275Z,67.50
2019-05-06T06:16:26.588Z,67.50
2019-05-06T06:19:12.679Z,67.50
2019-05-06T06:21:48.509Z,67.50
2019-05-06T06:24:23.777Z,67.50
2019-05-06T06:26:52.074Z,67.50
2019-05-06T06:29:19.172Z,67.50
2019-05-06T06:31:58.842Z,67.50
2019-05-06T06:34:42.729Z,67.50
2019-05-06T06:37:30.508Z,67.60
2019-05-06T06:39:59.445Z,67.50
2019-05-06T06:42:26.689Z,67.60
2019-05-06T06:44:56.188Z,67.50
2019-05-06T06:47:25.123Z,67.60
2019-05-06T06:49:53.580Z,67.60
2019-05-06T06:52:23.297Z,67.60
2019-05-06T06:54:55.930Z,67.60
2019-05-06T06:57:45.480Z,67.60
2019-05-06T07:00:35.527Z,67.60
2019-05-06T07:03:12.316Z,67.60
2019-05-06T07:05:58.983Z,67.50
2019-05-06T07:08:37.821Z,67.70
2019-05-06T07:11:17.977Z,67.70
2019-05-06T07:14:08.767Z,67.60
2019-05-06T07:16:53.201Z,67.60
2019-05-06T07:19:42.221Z,67.60
2019-05-06T07:22:26.943Z,67.60
2019-05-06T07:24:57.548Z,67.60
2019-05-06T07:27:32.391Z,67.70
2019-05-06T07:30:03.497Z,67.60
2019-05-06T07:32:32.925Z,67.70
2019-05-06T07:35:07.022Z,67.70
2019-05-06T07:37:52.901Z,67.70
2019-05-06T07:40:23.835Z,67.80
2019-05-06T07:42:57.329Z,67.80
2019-05-06T07:45:43.008Z,67.70
2019-05-06T07:48:14.653Z,67.80
2019-05-06T07:51:12.299Z,67.80
2019-05-06T07:53:47.339Z,67.80
2019-05-06T07:56:22.251Z,67.80
2019-05-06T07:59:03.219Z,67.70
2019-05-06T08:01:47.459Z,67.70
2019-05-06T08:04:34.377Z,67.80
2019-05-06T08:07:03.107Z,67.70
2019-05-06T08:09:43.258Z,67.70
2019-05-06T08:12:36.084Z,67.80
2019-05-06T08:15:22.652Z,67.80
2019-05-06T08:17:52.355Z,67.80
2019-05-06T08:20:47.058Z,67.80
2019-05-06T08:23:37.737Z,67.80
2019-05-06T08:26:11.989Z,67.90
2019-05-06T08:28:40.563Z,67.90
2019-05-06T08:31:09.312Z,67.90
2019-05-06T08:33:52.378Z,67.80
2019-05-06T08:36:43.422Z,67.90
2019-05-06T08:39:13.490Z,67.90
2019-05-06T08:41:42.289Z,67.90
2019-05-06T08:44:34.809Z,67.90
2019-05-06T08:47:03.608Z,67.90
2019-05-06T08:49:52.752Z,67.90
2019-05-06T08:52:22.971Z,68.00
2019-05-06T08:58:03.623Z,68.00
2019-05-06T09:00:39.563Z,67.90
2019-05-06T09:03:06.660Z,68.00
2019-05-06T09:05:33.745Z,68.00
2019-05-06T09:08:24.395Z,68.00
2019-05-06T09:10:55.667Z,68.00
2019-05-06T09:13:26.316Z,68.00
2019-05-06T09:15:54.491Z,68.00
2019-05-06T09:18:42.806Z,68.00
2019-05-06T09:21:17.259Z,68.00
2019-05-06T09:24:03.181Z,68.00
2019-05-06T09:26:52.010Z,68.10
2019-05-06T09:29:32.626Z,68.10
2019-05-06T09:32:13.930Z,68.10
2019-05-06T09:34:57.135Z,68.80
2019-05-06T09:37:27.616Z,68.10
2019-05-06T09:39:57.383Z,68.10
2019-05-06T09:42:25.718Z,68.00
2019-05-06T09:44:55.321Z,68.10
2019-05-06T09:47:42.470Z,68.10
2019-05-06T09:50:32.380Z,68.20
2019-05-06T09:53:13.116Z,68.20
2019-05-06T09:55:52.267Z,68.20
2019-05-06T09:58:23.205Z,68.10
2019-05-06T10:01:02.505Z,68.20
2019-05-06T10:03:35.665Z,68.20
2019-05-06T10:06:05.700Z,68.20
2019-05-06T10:08:33.748Z,68.30
2019-05-06T10:11:03.109Z,68.20
2019-05-06T10:13:32.702Z,68.30
2019-05-06T10:15:59.810Z,68.20
2019-05-06T10:18:30.544Z,68.30
2019-05-06T10:20:58.234Z,68.30
2019-05-06T10:26:15.732Z,68.30
2019-05-06T10:28:53.488Z,68.20
2019-05-06T10:31:22.302Z,68.30
2019-05-06T10:34:07.988Z,68.20
2019-05-06T10:36:37.391Z,68.30
2019-05-06T10:39:07.256Z,68.20
2019-05-06T10:41:34.744Z,68.20
2019-05-06T10:44:03.230Z,68.20
2019-05-06T10:46:31.981Z,68.20
2019-05-06T10:48:59.673Z,68.20
2019-05-06T10:51:38.567Z,68.20
2019-05-06T10:54:06.932Z,68.10
2019-05-06T10:56:57.428Z,68.20
2019-05-06T10:59:27.739Z,68.20
2019-05-06T11:02:05.082Z,68.20
2019-05-06T11:04:33.428Z,68.20
2019-05-06T11:07:00.686Z,68.10
2019-05-06T11:09:29.010Z,68.10
2019-05-06T11:11:56.841Z,68.10
2019-05-06T11:14:24.832Z,68.20
2019-05-06T11:16:52.567Z,68.10
2019-05-06T11:19:19.681Z,68.10
2019-05-06T11:21:49.952Z,68.10
2019-05-06T11:24:18.468Z,68.20
2019-05-06T11:26:46.593Z,68.10
2019-05-06T11:29:20.341Z,68.10
2019-05-06T11:32:02.364Z,68.20
2019-05-06T11:34:52.721Z,68.20
2019-05-06T11:37:46.916Z,68.20
2019-05-06T11:40:06.951Z,68.20
2019-05-06T11:42:35.957Z,67.90
2019-05-06T11:45:04.080Z,68.10
2019-05-06T11:47:34.245Z,68.10
2019-05-06T11:50:05.018Z,68.10
2019-05-06T11:52:31.253Z,68.90
2019-05-06T11:54:58.917Z,68.00
2019-05-06T11:57:26.116Z,68.00
2019-05-06T11:59:53.135Z,68.00
2019-05-06T12:02:22.779Z,68.10
2019-05-06T12:04:52.749Z,68.10
2019-05-06T12:07:28.888Z,67.90
2019-05-06T12:09:56.134Z,68.10
2019-05-06T12:12:28.139Z,68.00
2019-05-06T12:14:55.875Z,67.90
2019-05-06T12:17:23.471Z,68.00
2019-05-06T12:20:06.518Z,68.00
2019-05-06T12:22:36.627Z,68.00
2019-05-06T12:25:04.994Z,67.90
2019-05-06T12:27:45.230Z,68.00
2019-05-06T12:30:13.167Z,68.00
2019-05-06T12:32:48.199Z,67.90
2019-05-06T12:35:15.824Z,67.90
2019-05-06T12:37:46.523Z,67.90
2019-05-06T12:40:13.994Z,67.90
2019-05-06T12:42:46.353Z,67.80
2019-05-06T12:45:46.325Z,67.90
2019-05-06T12:48:24.341Z,67.90
2019-05-06T12:50:52.951Z,67.80
2019-05-06T12:53:23.169Z,67.80
2019-05-06T12:55:52.047Z,67.80
2019-05-06T12:58:21.035Z,67.90
2019-05-06T13:00:54.284Z,67.80
2019-05-06T13:03:24.269Z,67.80
2019-05-06T13:05:52.105Z,67.80
2019-05-06T13:08:21.175Z,67.80
2019-05-06T13:10:48.728Z,67.80
2019-05-06T13:13:16.264Z,67.80
2019-05-06T13:15:43.653Z,67.70
2019-05-06T13:18:11.426Z,67.80
2019-05-06T13:20:39.399Z,67.80
2019-05-06T13:23:29.210Z,67.80
2019-05-06T13:26:02.758Z,67.80
2019-05-06T13:28:37.698Z,67.70
2019-05-06T13:31:19.348Z,67.70
2019-05-06T13:33:54.150Z,67.70
2019-05-06T13:36:26.901Z,67.70
2019-05-06T13:39:09.823Z,67.70
2019-05-06T13:41:22.680Z,67.60
2019-05-06T13:43:59.305Z,67.60
2019-05-06T13:46:32.883Z,67.70
2019-05-06T13:49:18.775Z,67.80
2019-05-06T13:51:52.985Z,67.70
2019-05-06T13:54:22.416Z,67.50
2019-05-06T13:56:52.148Z,67.50
2019-05-06T13:59:19.804Z,67.50
2019-05-06T14:02:06.131Z,67.60
2019-05-06T14:04:32.583Z,67.60
2019-05-06T14:07:03.428Z,67.50
2019-05-06T14:09:38.989Z,67.50
2019-05-06T14:12:02.599Z,67.60
2019-05-06T14:14:33.036Z,67.50
2019-05-06T14:17:04.390Z,67.40
2019-05-06T14:19:33.248Z,67.50
2019-05-06T14:22:04.677Z,67.40
2019-05-06T14:24:34.875Z,67.50
2019-05-06T14:27:07.172Z,67.50
2019-05-06T14:29:54.124Z,67.50
2019-05-06T14:32:23.622Z,67.40
2019-05-06T14:34:52.078Z,67.50
2019-05-06T14:37:22.525Z,67.40
2019-05-06T14:39:58.136Z,67.40
2019-05-06T14:42:28.114Z,67.40
2019-05-06T14:44:55.846Z,67.40
2019-05-06T14:47:32.761Z,67.40
2019-05-06T14:50:00.127Z,67.40
2019-05-06T14:52:28.646Z,67.40
2019-05-06T14:55:15.526Z,67.40
2019-05-06T14:57:42.998Z,67.40
2019-05-06T15:00:13.872Z,67.40
2019-05-06T15:02:43.514Z,67.30
2019-05-06T15:05:12.993Z,67.30
2019-05-06T15:07:41.974Z,67.30
2019-05-06T15:10:21.919Z,67.30
2019-05-06T15:12:42.584Z,67.30
2019-05-06T15:15:12.088Z,67.10
2019-05-06T15:17:43.060Z,67.30
2019-05-06T15:20:12.206Z,67.20
2019-05-06T15:22:41.970Z,67.20
2019-05-06T15:25:09.321Z,67.20
2019-05-06T15:27:37.279Z,67.10
2019-05-06T15:30:13.490Z,67.30
2019-05-06T15:32:42.825Z,67.20
2019-05-06T15:35:28.703Z,67.30
2019-05-06T15:38:12.733Z,67.20
2019-05-06T15:40:40.549Z,67.20
2019-05-06T15:43:07.568Z,67.10
2019-05-06T15:45:34.637Z,67.10
2019-05-06T15:48:03.634Z,67.20
2019-05-06T15:50:32.477Z,67.20
2019-05-06T15:53:01.949Z,67.20
2019-05-06T15:55:32.151Z,67.10
2019-05-06T15:57:59.042Z,67.20
2019-05-06T16:00:26.539Z,67.10
2019-05-06T16:02:53.444Z,67.10
2019-05-06T16:05:25.878Z,67.10
2019-05-06T16:07:49.472Z,67.10
2019-05-06T16:10:16.596Z,67.10
2019-05-06T16:12:44.012Z,67.10
2019-05-06T16:15:12.958Z,67.10
2019-05-06T16:17:39.701Z,67.10
2019-05-06T16:20:07.686Z,66.90
2019-05-06T16:22:36.038Z,67.10
2019-05-06T16:25:13.092Z,67.10
2019-05-06T16:27:43.898Z,67.10
2019-05-06T16:30:08.622Z,67.00
2019-05-06T16:32:35.392Z,67.00
2019-05-06T16:35:02.231Z,67.00
2019-05-06T16:37:29.342Z,67.00
2019-05-06T16:39:56.309Z,67.00
2019-05-06T16:42:23.701Z,67.00
2019-05-06T16:44:52.752Z,66.80
2019-05-06T16:47:38.282Z,67.00
2019-05-06T16:50:05.432Z,67.10
2019-05-06T16:52:33.698Z,67.00
2019-05-06T16:55:03.060Z,66.90
2019-05-06T16:57:30.183Z,66.90
2019-05-06T16:59:57.167Z,67.00
2019-05-06T17:02:28.643Z,67.00
2019-05-06T17:05:15.084Z,67.00
2019-05-06T17:07:45.068Z,66.90
2019-05-06T17:10:12.432Z,66.90
2019-05-06T17:12:44.833Z,66.90
2019-05-06T17:15:13.377Z,67.00
2019-05-06T17:17:46.646Z,67.00
2019-05-06T17:20:12.186Z,66.90
2019-05-06T17:22:39.887Z,66.90
2019-05-06T17:28:02.111Z,66.90
2019-05-06T17:30:58.558Z,67.00
2019-05-06T17:33:54.294Z,66.90
2019-05-06T17:36:23.764Z,66.90
2019-05-06T17:38:52.957Z,66.90
2019-05-06T17:41:30.688Z,66.90
2019-05-06T17:47:05.458Z,66.80
2019-05-06T17:49:50.244Z,66.80
2019-05-06T17:52:22.358Z,66.80
2019-05-06T17:54:52.776Z,66.80
2019-05-06T17:57:22.807Z,66.90
2019-05-06T17:59:52.639Z,66.80
2019-05-06T18:05:14.393Z,66.80
2019-05-06T18:07:43.238Z,66.80
2019-05-06T18:10:12.004Z,66.80
2019-05-06T18:12:40.087Z,66.80
2019-05-06T18:15:17.508Z,66.80
2019-05-06T18:17:46.839Z,67.60
2019-05-06T18:20:14.392Z,66.80
2019-05-06T18:22:42.957Z,66.80
2019-05-06T18:25:12.668Z,66.80
2019-05-06T18:27:42.873Z,66.80
2019-05-06T18:30:19.543Z,66.80
2019-05-06T18:32:42.241Z,66.80
2019-05-06T18:35:09.490Z,66.80
2019-05-06T18:37:37.276Z,66.80
2019-05-06T18:40:04.565Z,66.80
2019-05-06T18:42:33.021Z,66.70
2019-05-06T18:45:02.719Z,66.80
2019-05-06T18:47:32.452Z,66.80
2019-05-06T18:50:02.327Z,66.80
2019-05-06T18:52:29.407Z,66.90
2019-05-06T18:55:01.895Z,66.90
2019-05-06T18:57:32.301Z,66.90
2019-05-06T19:00:02.940Z,66.80
2019-05-06T19:02:29.635Z,66.90
2019-05-06T19:05:02.819Z,66.90
2019-05-06T19:07:33.116Z,66.90
2019-05-06T19:10:10.001Z,66.90
2019-05-06T19:12:41.093Z,66.90
2019-05-06T19:15:06.626Z,66.90
2019-05-06T19:17:39.562Z,66.90
2019-05-06T19:20:07.992Z,66.80
2019-05-06T19:22:35.195Z,66.80
2019-05-06T19:25:04.127Z,66.80
2019-05-06T19:27:33.269Z,66.80
2019-05-06T19:30:02.416Z,66.90
2019-05-06T19:32:29.917Z,66.70
2019-05-06T19:34:57.846Z,66.80
2019-05-06T19:37:25.214Z,66.80
2019-05-06T19:39:52.769Z,66.70
2019-05-06T19:42:22.433Z,66.70
2019-05-06T19:44:49.998Z,66.70
2019-05-06T19:47:17.006Z,66.80
2019-05-06T19:49:44.690Z,66.60
2019-05-06T19:52:12.067Z,66.70
2019-05-06T19:54:39.386Z,66.60
2019-05-06T19:57:07.071Z,66.50
2019-05-06T19:59:36.247Z,66.50
2019-05-06T20:02:05.135Z,66.70
2019-05-06T20:04:34.759Z,66.60
2019-05-06T20:07:13.118Z,66.60
2019-05-06T20:09:57.648Z,66.60
2019-05-06T20:12:34.784Z,66.50
2019-05-06T20:15:21.616Z,66.60
2019-05-06T20:17:49.510Z,66.50
2019-05-06T20:20:17.707Z,66.50
2019-05-06T20:22:45.227Z,66.50
2019-05-06T20:25:12.789Z,66.50
2019-05-06T20:28:10.445Z,66.60
2019-05-06T20:30:43.431Z,66.50
2019-05-06T20:33:12.449Z,66.50
2019-05-06T20:35:43.280Z,66.40
2019-05-06T20:38:14.398Z,66.50
2019-05-06T20:40:44.351Z,66.50
2019-05-06T20:43:19.688Z,66.50
2019-05-06T20:45:43.007Z,66.30
2019-05-06T20:48:12.947Z,66.50
2019-05-06T20:50:43.060Z,66.40
2019-05-06T20:53:12.333Z,66.50
2019-05-06T20:55:43.141Z,66.40
2019-05-06T20:58:12.396Z,66.40
2019-05-06T21:00:39.860Z,66.40
2019-05-06T21:03:07.242Z,66.40
2019-05-06T21:05:35.495Z,66.50
2019-05-06T21:08:05.398Z,66.50
2019-05-06T21:10:37.950Z,66.50
2019-05-06T21:13:07.284Z,66.50
2019-05-06T21:18:26.876Z,66.40
2019-05-06T21:21:02.026Z,66.30
2019-05-06T21:23:48.695Z,66.40
2019-05-06T21:26:22.072Z,66.50
2019-05-06T21:28:52.916Z,66.40
2019-05-06T21:31:20.425Z,66.40
2019-05-06T21:33:52.230Z,66.30
2019-05-06T21:36:23.007Z,66.40
2019-05-06T21:38:52.411Z,66.40
2019-05-06T21:41:22.178Z,66.40
2019-05-06T21:43:50.403Z,66.40
2019-05-06T21:46:18.450Z,66.50
2019-05-06T21:48:46.483Z,66.50
2019-05-06T21:51:15.551Z,66.40
2019-05-06T21:53:47.865Z,66.30
2019-05-06T21:56:17.089Z,66.40
2019-05-06T21:58:44.799Z,66.40
2019-05-06T22:01:12.753Z,66.30
2019-05-06T22:03:43.223Z,66.40
2019-05-06T22:06:16.599Z,66.40
2019-05-06T22:08:44.686Z,66.40
2019-05-06T22:11:13.015Z,66.30
2019-05-06T22:13:57.584Z,66.40
2019-05-06T22:16:12.620Z,66.30
2019-05-06T22:18:43.194Z,66.40
2019-05-06T22:21:17.450Z,66.40
2019-05-06T22:23:52.115Z,66.40
2019-05-06T22:26:19.696Z,66.40
2019-05-06T22:28:47.386Z,66.30
2019-05-06T22:31:17.903Z,66.30
2019-05-06T22:33:45.800Z,66.30
2019-05-06T22:36:14.481Z,66.30
2019-05-06T22:38:47.664Z,66.40
2019-05-06T22:41:14.974Z,66.30
2019-05-06T22:43:42.441Z,66.30
2019-05-06T22:46:13.390Z,66.30
2019-05-06T22:48:43.390Z,66.20
2019-05-06T22:51:12.397Z,66.30
2019-05-06T22:53:42.876Z,66.30
2019-05-06T22:56:12.532Z,66.30
2019-05-06T22:58:42.608Z,66.30
2019-05-06T23:01:36.551Z,66.30
2019-05-06T23:04:04.504Z,66.30
2019-05-06T23:06:32.930Z,66.30
2019-05-06T23:09:02.653Z,66.30
2019-05-06T23:11:34.533Z,66.30
2019-05-06T23:14:04.124Z,67.00
2019-05-06T23:16:32.923Z,66.00
2019-05-06T23:19:02.106Z,66.20
2019-05-06T23:21:33.495Z,66.20
2019-05-06T23:24:02.004Z,66.20
2019-05-06T23:26:30.439Z,66.20
2019-05-06T23:29:02.457Z,66.20
2019-05-06T23:31:29.685Z,66.20
2019-05-06T23:33:56.993Z,66.10
2019-05-06T23:36:24.114Z,66.20
2019-05-06T23:38:52.787Z,66.20
2019-05-06T23:41:21.914Z,66.30
2019-05-06T23:43:49.891Z,66.10
2019-05-06T23:46:32.403Z,66.10
2019-05-06T23:49:04.136Z,66.30
2019-05-06T23:51:35.817Z,66.10
2019-05-06T23:54:03.719Z,66.10
2019-05-06T23:56:32.650Z,66.10
2019-05-06T23:59:01.586Z,66.10
